createdAt,value
2018-11-07T00:00:45.331Z,16.40
2018-11-07T00:03:12.907Z,16.40
2018-11-07T00:05:40.450Z,16.40
2018-11-07T00:08:08.147Z,16.20
2018-11-07T00:13:03.717Z,16.40
2018-11-07T00:15:31.287Z,16.40
2018-11-07T00:17:58.807Z,16.30
2018-11-07T00:20:26.363Z,16.30
2018-11-07T00:25:21.367Z,16.30
2018-11-07T00:32:43.930Z,16.20
2018-11-07T00:35:12.029Z,16.20
2018-11-07T00:37:40.007Z,16.20
2018-11-07T00:40:07.645Z,16.10
2018-11-07T00:42:35.313Z,16.10
2018-11-07T00:52:25.345Z,16.00
2018-11-07T00:57:20.359Z,16.00
2018-11-07T00:59:48.154Z,16.00
2018-11-07T01:04:43.228Z,16.00
2018-11-07T01:07:10.776Z,16.00
2018-11-07T01:09:38.364Z,16.00
2018-11-07T01:12:05.908Z,16.00
2018-11-07T01:14:33.468Z,15.90
2018-11-07T01:17:00.988Z,16.00
2018-11-07T01:21:55.996Z,15.90
2018-11-07T01:24:23.528Z,15.90
2018-11-07T01:26:51.053Z,15.90
2018-11-07T01:29:18.578Z,15.90
2018-11-07T01:34:20.446Z,15.90
2018-11-07T01:36:48.079Z,15.90
2018-11-07T01:39:15.632Z,15.90
2018-11-07T01:41:43.130Z,15.70
2018-11-07T01:44:10.702Z,15.90
2018-11-07T01:46:38.212Z,15.90
2018-11-07T01:51:33.450Z,15.90
2018-11-07T01:54:00.978Z,15.90
2018-11-07T02:01:23.518Z,15.80
2018-11-07T02:06:18.547Z,15.90
2018-11-07T02:08:46.333Z,15.80
2018-11-07T02:11:13.813Z,15.90
2018-11-07T02:13:41.327Z,15.80
2018-11-07T02:16:08.834Z,15.80
2018-11-07T02:18:36.376Z,15.80
2018-11-07T02:21:03.946Z,15.80
2018-11-07T02:23:31.467Z,15.80
2018-11-07T02:25:59.031Z,15.70
2018-11-07T02:28:26.467Z,15.70
2018-11-07T02:30:54.002Z,15.60
2018-11-07T02:33:21.530Z,15.60
2018-11-07T02:35:49.161Z,15.60
2018-11-07T02:38:16.753Z,15.60
2018-11-07T02:40:44.295Z,15.60
2018-11-07T02:43:11.823Z,15.50
2018-11-07T02:45:39.329Z,15.50
2018-11-07T02:48:06.925Z,15.50
2018-11-07T02:50:34.409Z,15.50
2018-11-07T02:53:01.990Z,15.40
2018-11-07T02:55:29.502Z,15.40
2018-11-07T02:57:57.026Z,15.40
2018-11-07T03:02:52.029Z,15.40
2018-11-07T03:07:47.009Z,15.50
2018-11-07T03:15:10.227Z,15.40
2018-11-07T03:20:07.946Z,15.40
2018-11-07T03:27:30.377Z,15.40
2018-11-07T03:29:57.916Z,15.40
2018-11-07T03:32:25.419Z,15.40
2018-11-07T03:34:52.964Z,15.40
2018-11-07T03:37:20.491Z,15.40
2018-11-07T03:39:48.076Z,15.40
2018-11-07T03:42:15.625Z,15.40
2018-11-07T03:44:43.119Z,15.40
2018-11-07T03:49:38.238Z,15.30
2018-11-07T03:52:05.894Z,15.30
2018-11-07T03:54:33.408Z,15.30
2018-11-07T03:57:00.930Z,15.30
2018-11-07T03:59:28.473Z,15.30
2018-11-07T04:01:55.966Z,15.30
2018-11-07T04:04:23.495Z,15.30
2018-11-07T04:06:51.096Z,15.30
2018-11-07T04:16:41.349Z,15.20
2018-11-07T04:21:37.194Z,15.10
2018-11-07T04:24:05.346Z,15.10
2018-11-07T04:26:34.002Z,15.00
2018-11-07T04:29:01.502Z,15.00
2018-11-07T04:33:56.912Z,15.00
2018-11-07T04:36:24.889Z,14.90
2018-11-07T04:41:20.421Z,14.90
2018-11-07T04:43:48.000Z,14.90
2018-11-07T04:46:15.584Z,14.80
2018-11-07T04:51:11.056Z,14.80
2018-11-07T04:53:38.603Z,14.80
2018-11-07T04:56:06.209Z,14.80
2018-11-07T04:58:34.316Z,14.70
2018-11-07T05:01:01.841Z,14.70
2018-11-07T05:05:56.889Z,14.70
2018-11-07T05:08:24.421Z,14.70
2018-11-07T05:10:52.162Z,14.70
2018-11-07T05:15:47.173Z,14.70
2018-11-07T05:18:14.698Z,14.70
2018-11-07T05:20:42.255Z,14.60
2018-11-07T05:23:09.811Z,14.60
2018-11-07T05:25:37.395Z,14.60
2018-11-07T05:35:28.911Z,14.60
2018-11-07T05:37:56.569Z,14.60
2018-11-07T05:40:24.269Z,14.60
2018-11-07T05:42:52.109Z,14.60
2018-11-07T05:45:20.032Z,14.60
2018-11-07T05:47:47.931Z,14.60
2018-11-07T05:50:15.646Z,14.60
2018-11-07T05:57:38.993Z,14.60
2018-11-07T06:00:08.585Z,14.60
2018-11-07T06:02:36.273Z,14.50
2018-11-07T06:05:04.287Z,14.50
2018-11-07T06:09:59.637Z,14.50
2018-11-07T06:12:27.289Z,14.50
2018-11-07T06:14:55.091Z,14.50
2018-11-07T06:19:50.277Z,14.40
2018-11-07T06:22:17.865Z,14.40
2018-11-07T06:27:13.087Z,14.40
2018-11-07T06:34:35.740Z,14.30
2018-11-07T06:37:03.305Z,14.30
2018-11-07T06:39:31.050Z,14.30
2018-11-07T06:41:58.607Z,14.20
2018-11-07T06:49:21.303Z,14.20
2018-11-07T06:51:48.945Z,14.20
2018-11-07T06:54:16.534Z,14.20
2018-11-07T06:59:11.730Z,14.10
2018-11-07T07:09:01.940Z,14.20
2018-11-07T07:11:29.484Z,14.20
2018-11-07T07:13:57.068Z,14.20
2018-11-07T07:16:24.591Z,14.30
2018-11-07T07:21:19.756Z,14.30
2018-11-07T07:23:47.588Z,14.30
2018-11-07T07:31:10.047Z,14.50
2018-11-07T07:33:37.719Z,14.50
2018-11-07T07:41:00.210Z,14.60
2018-11-07T07:48:23.026Z,14.70
2018-11-07T07:50:50.803Z,14.80
2018-11-07T07:53:18.997Z,14.90
2018-11-07T07:55:47.342Z,14.90
2018-11-07T07:58:15.060Z,14.90
2018-11-07T08:00:42.767Z,14.90
2018-11-07T08:05:38.050Z,15.00
2018-11-07T08:08:05.820Z,15.00
2018-11-07T08:10:33.561Z,15.10
2018-11-07T08:13:01.135Z,15.10
2018-11-07T08:15:28.692Z,15.10
2018-11-07T08:17:56.273Z,15.20
2018-11-07T08:20:23.874Z,15.20
2018-11-07T08:22:51.444Z,15.20
2018-11-07T08:25:19.008Z,15.30
2018-11-07T08:30:15.682Z,15.40
2018-11-07T08:32:43.259Z,15.40
2018-11-07T08:35:14.390Z,15.50
2018-11-07T08:37:42.826Z,15.60
2018-11-07T08:42:39.639Z,15.80
2018-11-07T08:45:08.752Z,15.90
2018-11-07T08:47:36.507Z,16.10
2018-11-07T08:50:05.754Z,16.30
2018-11-07T08:52:33.434Z,16.40
2018-11-07T08:55:01.123Z,16.50
2018-11-07T09:02:23.980Z,17.00
2018-11-07T09:07:19.140Z,17.40
2018-11-07T09:09:46.727Z,17.60
2018-11-07T09:12:14.401Z,17.70
2018-11-07T09:14:41.978Z,18.00
2018-11-07T09:17:09.568Z,18.10
2018-11-07T09:24:32.409Z,18.70
2018-11-07T09:26:59.961Z,18.90
2018-11-07T09:29:27.874Z,19.10
2018-11-07T09:31:55.531Z,19.30
2018-11-07T09:34:23.163Z,19.50
2018-11-07T09:36:50.865Z,19.60
2018-11-07T09:39:18.476Z,19.80
2018-11-07T09:41:46.097Z,20.00
2018-11-07T09:44:13.758Z,20.10
2018-11-07T09:49:08.953Z,20.40
2018-11-07T09:51:36.631Z,20.50
2018-11-07T09:54:04.223Z,20.70
2018-11-07T10:01:26.899Z,21.20
2018-11-07T10:03:54.441Z,21.40
2018-11-07T10:06:22.322Z,21.60
2018-11-07T10:08:50.032Z,21.80
2018-11-07T10:11:17.642Z,22.00
2018-11-07T10:13:45.171Z,22.20
2018-11-07T10:16:12.799Z,22.50
2018-11-07T10:18:40.376Z,22.80
2018-11-07T10:21:07.980Z,23.10
2018-11-07T10:23:35.495Z,23.30
2018-11-07T10:26:03.074Z,23.90
2018-11-07T10:28:30.871Z,24.20
2018-11-07T10:35:53.487Z,25.10
2018-11-07T10:38:21.278Z,25.20
2018-11-07T10:40:48.845Z,25.20
2018-11-07T10:43:16.414Z,25.00
2018-11-07T10:45:44.000Z,25.00
2018-11-07T10:48:11.536Z,24.70
2018-11-07T10:50:39.110Z,24.50
2018-11-07T10:53:06.780Z,24.30
2018-11-07T10:55:34.520Z,24.00
2018-11-07T10:58:02.118Z,23.80
2018-11-07T11:00:35.253Z,23.50
2018-11-07T11:08:05.254Z,22.90
2018-11-07T11:10:32.817Z,22.70
2018-11-07T11:13:00.441Z,22.60
2018-11-07T11:17:55.628Z,22.30
2018-11-07T11:22:50.680Z,22.20
2018-11-07T11:27:45.820Z,22.10
2018-11-07T11:30:13.377Z,22.10
2018-11-07T11:35:10.133Z,22.10
2018-11-07T11:37:37.673Z,22.20
2018-11-07T11:40:06.953Z,22.30
2018-11-07T11:47:29.672Z,22.50
2018-11-07T11:49:57.348Z,22.60
2018-11-07T11:57:20.489Z,22.80
2018-11-07T11:59:48.395Z,22.90
2018-11-07T12:02:15.768Z,23.00
2018-11-07T12:07:10.829Z,23.20
2018-11-07T12:17:00.973Z,23.50
2018-11-07T12:19:28.613Z,23.60
2018-11-07T12:21:56.102Z,23.70
2018-11-07T12:24:23.715Z,23.70
2018-11-07T12:29:18.913Z,23.80
2018-11-07T12:31:46.541Z,23.90
2018-11-07T12:34:14.181Z,23.90
2018-11-07T12:36:41.877Z,23.90
2018-11-07T12:39:09.491Z,23.90
2018-11-07T12:41:37.165Z,23.90
2018-11-07T12:44:05.085Z,23.90
2018-11-07T12:46:32.717Z,23.90
2018-11-07T12:49:00.284Z,23.90
2018-11-07T12:53:55.776Z,24.10
2018-11-07T12:56:23.485Z,24.30
2018-11-07T12:58:51.245Z,24.30
2018-11-07T13:03:46.552Z,24.70
2018-11-07T13:06:14.257Z,24.80
2018-11-07T13:13:37.253Z,25.10
2018-11-07T13:16:04.940Z,25.30
2018-11-07T13:18:32.634Z,25.30
2018-11-07T13:23:27.860Z,25.40
2018-11-07T13:25:55.421Z,25.50
2018-11-07T13:30:59.472Z,25.50
2018-11-07T13:33:27.089Z,25.50
2018-11-07T13:35:54.764Z,25.50
2018-11-07T13:38:22.566Z,25.60
2018-11-07T13:40:50.026Z,25.70
2018-11-07T13:43:17.746Z,25.80
2018-11-07T13:45:45.260Z,25.90
2018-11-07T13:48:12.906Z,25.90
2018-11-07T13:50:40.500Z,26.00
2018-11-07T13:53:08.144Z,25.90
2018-11-07T13:55:35.732Z,25.90
2018-11-07T13:58:03.357Z,25.80
2018-11-07T14:00:31.189Z,25.80
2018-11-07T14:02:58.802Z,25.70
2018-11-07T14:05:26.507Z,25.60
2018-11-07T14:07:54.030Z,25.50
2018-11-07T14:12:51.541Z,25.10
2018-11-07T14:15:19.516Z,25.10
2018-11-07T14:17:47.280Z,25.00
2018-11-07T14:20:14.897Z,24.80
2018-11-07T14:22:42.674Z,24.70
2018-11-07T14:27:38.675Z,24.30
2018-11-07T14:32:36.960Z,24.00
2018-11-07T14:37:32.425Z,23.70
2018-11-07T14:40:04.174Z,23.60
2018-11-07T14:42:31.772Z,23.40
2018-11-07T14:44:59.408Z,23.30
2018-11-07T14:47:27.013Z,23.10
2018-11-07T14:49:55.197Z,23.00
2018-11-07T14:52:22.824Z,22.90
2018-11-07T14:54:50.422Z,22.80
2018-11-07T14:57:18.339Z,22.70
2018-11-07T14:59:45.991Z,22.60
2018-11-07T15:02:13.669Z,22.40
2018-11-07T15:04:41.344Z,22.30
2018-11-07T15:09:36.610Z,22.10
2018-11-07T15:12:04.756Z,22.00
2018-11-07T15:14:32.464Z,22.00
2018-11-07T15:17:00.185Z,21.90
2018-11-07T15:19:27.906Z,21.80
2018-11-07T15:21:55.496Z,21.70
2018-11-07T15:24:23.113Z,21.50
2018-11-07T15:29:18.459Z,21.40
2018-11-07T15:31:46.099Z,21.40
2018-11-07T15:39:10.086Z,21.10
2018-11-07T15:41:37.674Z,21.00
2018-11-07T15:44:05.334Z,21.00
2018-11-07T15:46:32.959Z,20.90
2018-11-07T15:49:00.651Z,20.80
2018-11-07T15:51:33.966Z,20.80
2018-11-07T15:58:56.687Z,20.50
2018-11-07T16:01:25.467Z,20.50
2018-11-07T16:03:56.232Z,20.40
2018-11-07T16:06:24.547Z,20.30
2018-11-07T16:08:52.576Z,20.20
2018-11-07T16:11:20.101Z,20.10
2018-11-07T16:13:47.779Z,20.10
2018-11-07T16:16:15.443Z,20.00
2018-11-07T16:18:43.108Z,19.90
2018-11-07T16:23:38.445Z,19.70
2018-11-07T16:26:06.232Z,19.60
2018-11-07T16:28:33.904Z,19.50
2018-11-07T16:31:01.756Z,19.50
2018-11-07T16:33:29.476Z,19.30
2018-11-07T16:35:57.047Z,19.30
2018-11-07T16:38:24.695Z,19.20
2018-11-07T16:43:19.970Z,19.10
2018-11-07T16:48:15.362Z,18.90
2018-11-07T16:50:43.117Z,18.90
2018-11-07T16:55:38.263Z,18.80
2018-11-07T16:58:05.933Z,18.70
2018-11-07T17:00:33.565Z,18.70
2018-11-07T17:03:01.238Z,18.70
2018-11-07T17:05:29.010Z,18.70
2018-11-07T17:07:56.684Z,18.60
2018-11-07T17:12:52.006Z,18.60
2018-11-07T17:17:47.505Z,18.60
2018-11-07T17:20:15.715Z,18.50
2018-11-07T17:22:43.737Z,18.50
2018-11-07T17:25:17.109Z,18.50
2018-11-07T17:27:45.139Z,18.50
2018-11-07T17:30:13.947Z,18.50
2018-11-07T17:35:11.507Z,18.40
2018-11-07T17:37:39.415Z,18.40
2018-11-07T17:42:36.395Z,18.30
2018-11-07T17:47:32.844Z,18.20
2018-11-07T17:50:00.612Z,18.20
2018-11-07T17:52:28.247Z,18.20
2018-11-07T17:54:55.896Z,18.10
2018-11-07T17:57:23.522Z,18.10
2018-11-07T17:59:51.143Z,18.00
2018-11-07T18:07:15.401Z,17.90
2018-11-07T18:09:43.276Z,17.80
2018-11-07T18:12:11.027Z,17.80
2018-11-07T18:17:06.274Z,17.70
2018-11-07T18:19:33.921Z,17.70
2018-11-07T18:24:29.264Z,17.60
2018-11-07T18:29:24.552Z,17.50
2018-11-07T18:31:52.392Z,17.50
2018-11-07T18:34:20.192Z,17.40
2018-11-07T18:44:11.277Z,17.30
2018-11-07T18:46:39.184Z,17.30
2018-11-07T18:49:07.126Z,17.20
2018-11-07T18:54:02.462Z,17.20
2018-11-07T18:56:30.194Z,17.20
2018-11-07T18:58:58.013Z,17.10
2018-11-07T19:01:25.708Z,17.10
2018-11-07T19:08:49.193Z,17.00
2018-11-07T19:11:16.887Z,17.00
2018-11-07T19:13:44.506Z,16.90
2018-11-07T19:16:12.578Z,16.90
2018-11-07T19:18:40.268Z,16.90
2018-11-07T19:21:07.969Z,16.80
2018-11-07T19:23:35.595Z,16.80
2018-11-07T19:26:03.292Z,16.80
2018-11-07T19:30:58.449Z,16.80
2018-11-07T19:33:26.014Z,16.70
2018-11-07T19:38:21.318Z,16.70
2018-11-07T19:40:48.944Z,16.70
2018-11-07T19:43:16.653Z,16.70
2018-11-07T19:45:44.255Z,16.70
2018-11-07T19:48:11.835Z,16.70
2018-11-07T19:50:39.476Z,16.70
2018-11-07T19:53:07.107Z,16.70
2018-11-07T19:58:02.638Z,16.70
2018-11-07T20:05:25.510Z,16.60
2018-11-07T20:10:21.330Z,16.60
2018-11-07T20:12:48.971Z,16.60
2018-11-07T20:15:17.613Z,16.50
2018-11-07T20:17:45.290Z,16.60
2018-11-07T20:20:13.316Z,16.50
2018-11-07T20:25:11.233Z,16.50
2018-11-07T20:30:09.428Z,16.40
2018-11-07T20:32:37.104Z,16.40
2018-11-07T20:35:06.038Z,16.40
2018-11-07T20:40:01.197Z,16.30
2018-11-07T20:42:29.118Z,16.30
2018-11-07T20:44:56.863Z,16.30
2018-11-07T20:47:24.507Z,16.30
2018-11-07T20:49:52.263Z,16.30
2018-11-07T20:54:47.672Z,16.30
2018-11-07T20:57:15.716Z,16.30
2018-11-07T21:02:10.862Z,16.20
2018-11-07T21:04:38.595Z,16.20
2018-11-07T21:09:36.228Z,16.30
2018-11-07T21:14:31.848Z,16.20
2018-11-07T21:30:03.953Z,16.50
2018-11-07T21:34:59.249Z,16.20
2018-11-07T21:37:26.959Z,16.30
2018-11-07T21:39:54.675Z,16.30
2018-11-07T21:42:22.341Z,16.20
2018-11-07T21:44:49.926Z,16.20
2018-11-07T21:49:46.061Z,16.10
2018-11-07T21:54:41.555Z,16.10
2018-11-07T21:57:09.250Z,16.10
2018-11-07T22:02:05.249Z,16.00
2018-11-07T22:04:33.268Z,16.00
2018-11-07T22:07:01.045Z,16.00
2018-11-07T22:09:28.622Z,16.00
2018-11-07T22:14:23.944Z,15.90
2018-11-07T22:16:51.521Z,15.90
2018-11-07T22:19:19.140Z,15.90
2018-11-07T22:21:46.798Z,15.90
2018-11-07T22:29:11.428Z,15.80
2018-11-07T22:31:39.080Z,15.80
2018-11-07T22:36:34.498Z,15.70
2018-11-07T22:41:29.937Z,15.70
2018-11-07T22:43:57.600Z,15.70
2018-11-07T22:46:25.192Z,15.70
2018-11-07T22:51:20.254Z,15.60
2018-11-07T22:53:47.846Z,15.60
2018-11-07T22:56:15.699Z,15.60
2018-11-07T22:58:43.369Z,15.60
2018-11-07T23:01:16.489Z,15.60
2018-11-07T23:03:45.539Z,15.60
2018-11-07T23:06:13.069Z,15.60
2018-11-07T23:08:40.760Z,15.60
2018-11-07T23:16:03.625Z,15.50
2018-11-07T23:18:31.668Z,15.50
2018-11-07T23:20:59.316Z,15.50
2018-11-07T23:25:54.433Z,15.40
2018-11-07T23:28:22.029Z,15.50
2018-11-07T23:33:17.297Z,15.40
2018-11-07T23:35:44.915Z,15.40
2018-11-07T23:38:12.503Z,15.30
2018-11-07T23:40:40.167Z,15.30
2018-11-07T23:43:08.092Z,15.30
2018-11-07T23:50:30.787Z,15.30
2018-11-07T23:52:58.384Z,15.20
2018-11-07T23:55:26.048Z,15.20
2018-11-07T23:57:53.864Z,15.20
